createdAt,value
2023-01-08T00:10:01.312Z,1015.57
2023-01-08T00:20:01.048Z,1015.63
2023-01-08T00:30:01.015Z,1015.43
2023-01-08T00:50:01.428Z,1015.19
2023-01-08T01:10:01.506Z,1014.94
2023-01-08T01:30:01.148Z,1015.09
2023-01-08T01:40:01.026Z,1015.06
2023-01-08T01:50:01.172Z,1015.01
2023-01-08T02:10:01.149Z,1014.71
2023-01-08T02:20:00.329Z,1014.71
2023-01-08T02:30:01.080Z,1014.40
2023-01-08T02:40:01.627Z,1014.33
2023-01-08T02:50:01.239Z,1014.31
2023-01-08T03:00:01.319Z,1014.20
2023-01-08T03:10:01.243Z,1014.07
2023-01-08T03:20:01.259Z,1014.05
2023-01-08T03:30:01.296Z,1013.91
2023-01-08T03:50:01.049Z,1013.68
2023-01-08T04:10:01.890Z,1013.82
2023-01-08T04:30:02.509Z,1013.80
2023-01-08T04:50:01.774Z,1013.44
2023-01-08T05:00:01.333Z,1013.55
2023-01-08T05:10:01.851Z,1013.44
2023-01-08T05:20:01.379Z,1013.35
2023-01-08T05:30:01.001Z,1013.24
2023-01-08T05:40:01.333Z,1013.13
2023-01-08T05:50:00.962Z,1013.06
2023-01-08T06:00:01.255Z,1012.96
2023-01-08T06:10:01.001Z,1012.82
2023-01-08T06:30:02.759Z,1012.62
2023-01-08T06:50:01.029Z,1012.55
2023-01-08T07:10:01.260Z,1012.48
2023-01-08T07:20:01.438Z,1012.44
2023-01-08T07:30:01.473Z,1012.51
2023-01-08T07:40:02.267Z,1012.57
2023-01-08T07:50:01.480Z,1012.76
2023-01-08T08:00:01.093Z,1012.79
2023-01-08T08:10:01.886Z,1012.73
2023-01-08T08:30:02.242Z,1012.89
2023-01-08T08:40:01.225Z,1012.66
2023-01-08T08:50:01.236Z,1012.58
2023-01-08T09:00:01.520Z,1012.55
2023-01-08T09:10:02.301Z,1012.21
2023-01-08T09:20:01.164Z,1011.82
2023-01-08T09:30:01.103Z,1012.05
2023-01-08T09:40:02.860Z,1012.30
2023-01-08T09:50:01.032Z,1012.53
2023-01-08T10:10:01.097Z,1012.49
2023-01-08T10:30:01.097Z,1012.50
2023-01-08T10:40:01.076Z,1012.54
2023-01-08T10:50:01.038Z,1012.60
2023-01-08T11:00:01.358Z,1012.53
2023-01-08T11:10:01.057Z,1012.37
2023-01-08T11:20:01.252Z,1012.14
2023-01-08T11:30:01.314Z,1011.88
2023-01-08T11:40:00.269Z,1011.73
2023-01-08T11:50:02.943Z,1011.80
2023-01-08T12:00:02.978Z,1011.62
2023-01-08T12:10:01.261Z,1011.40
2023-01-08T12:20:01.892Z,1011.29
2023-01-08T12:30:01.212Z,1011.16
2023-01-08T12:40:01.081Z,1011.07
2023-01-08T12:50:00.216Z,1011.03
2023-01-08T13:00:01.307Z,1011.00
2023-01-08T13:10:01.481Z,1010.81
2023-01-08T13:20:02.562Z,1010.86
2023-01-08T13:30:01.328Z,1010.71
2023-01-08T13:40:00.240Z,1010.78
2023-01-08T13:50:01.093Z,1010.80
2023-01-08T14:00:01.240Z,1010.86
2023-01-08T14:10:01.142Z,1010.79
2023-01-08T14:20:00.992Z,1010.79
2023-01-08T14:30:00.997Z,1010.77
2023-01-08T14:40:01.263Z,1010.74
2023-01-08T14:50:01.026Z,1010.78
2023-01-08T15:00:02.680Z,1010.67
2023-01-08T15:10:02.613Z,1010.60
2023-01-08T15:20:02.169Z,1010.61
2023-01-08T15:30:01.474Z,1010.68
2023-01-08T15:40:01.022Z,1010.69
2023-01-08T15:50:05.169Z,1010.73
2023-01-08T16:00:02.878Z,1010.75
2023-01-08T16:10:01.087Z,1010.63
2023-01-08T16:20:00.254Z,1010.65
2023-01-08T16:30:02.980Z,1010.56
2023-01-08T16:40:01.206Z,1010.41
2023-01-08T16:50:01.093Z,1010.36
2023-01-08T17:00:01.069Z,1010.20
2023-01-08T17:10:02.178Z,1010.03
2023-01-08T17:20:01.334Z,1009.96
2023-01-08T17:30:01.380Z,1009.79
2023-01-08T17:40:01.489Z,1009.78
2023-01-08T17:50:01.575Z,1009.77
2023-01-08T18:00:04.173Z,1009.66
2023-01-08T18:10:01.211Z,1009.65
2023-01-08T18:20:01.103Z,1009.61
2023-01-08T18:30:01.006Z,1009.66
2023-01-08T18:40:00.262Z,1009.70
2023-01-08T18:50:01.046Z,1009.46
2023-01-08T19:00:02.265Z,1009.46
2023-01-08T19:10:01.019Z,1009.49
2023-01-08T19:20:01.913Z,1009.40
2023-01-08T19:30:01.289Z,1009.40
2023-01-08T19:40:01.313Z,1009.36
2023-01-08T19:50:01.131Z,1009.28
2023-01-08T20:00:01.410Z,1009.13
2023-01-08T20:10:02.365Z,1009.03
2023-01-08T20:20:01.128Z,1008.93
2023-01-08T20:30:01.066Z,1008.91
2023-01-08T20:40:01.361Z,1008.81
2023-01-08T20:50:03.226Z,1008.74
2023-01-08T21:00:01.769Z,1008.74
2023-01-08T21:10:01.080Z,1008.67
2023-01-08T21:20:01.339Z,1008.60
2023-01-08T21:30:01.010Z,1008.41
2023-01-08T21:40:02.451Z,1008.30
2023-01-08T21:50:01.308Z,1008.28
2023-01-08T22:00:02.193Z,1008.01
2023-01-08T22:10:00.986Z,1007.92
2023-01-08T22:20:03.970Z,1007.64
2023-01-08T22:30:02.250Z,1007.62
2023-01-08T22:40:01.278Z,1007.49
2023-01-08T22:50:01.189Z,1007.55
2023-01-08T23:00:01.315Z,1007.44
2023-01-08T23:10:01.417Z,1007.31
2023-01-08T23:20:02.373Z,1007.23
2023-01-08T23:30:01.524Z,1007.13
2023-01-08T23:40:01.010Z,1006.94
2023-01-08T23:50:01.209Z,1007.01
